Time;durP1;ratioP1;P1;durP2;ratioP2;P2;SDS_P1;SDS_P2;PMS_P1;PMS_P2;Temp;Humidity;BMP_temperature;BMP_pressure;BME280_temperature;BME280_humidity;BME280_pressure;Samples;Min_cycle;Max_cycle;Signal;HPM_P1;HPM_P2
2023/03/27 00:00:11;;;;;;;10.10;2.70;;;3.40;99.90;;;;;;5033230;28;20477;-73
2023/03/27 00:02:42;;;;;;;11.80;2.70;;;3.40;99.90;;;;;;5033716;28;20420;-72
2023/03/27 00:05:12;;;;;;;12.73;2.70;;;3.40;99.90;;;;;;5033364;28;20497;-73
2023/03/27 00:07:41;;;;;;;11.17;2.87;;;3.40;99.90;;;;;;5033296;28;20488;-72
2023/03/27 00:10:11;;;;;;;11.60;2.70;;;3.40;99.90;;;;;;5015484;28;20481;-73
2023/03/27 00:12:39;;;;;;;8.57;2.60;;;3.40;99.90;;;;;;5033246;28;20439;-72
2023/03/27 00:15:14;;;;;;;7.90;3.23;;;3.40;99.90;;;;;;5015518;28;20994;-72
2023/03/27 00:17:45;;;;;;;10.93;2.73;;;3.40;99.90;;;;;;5033240;28;20423;-72
2023/03/27 00:20:14;;;;;;;12.20;2.60;;;3.40;99.90;;;;;;5015567;28;20462;-72
2023/03/27 00:22:43;;;;;;;11.40;3.10;;;3.30;99.90;;;;;;5033345;28;20438;-72
2023/03/27 00:25:11;;;;;;;8.83;2.80;;;3.30;99.90;;;;;;5033652;28;20837;-72
2023/03/27 00:27:40;;;;;;;7.97;2.07;;;3.30;99.90;;;;;;5032121;28;20528;-73
2023/03/27 00:30:09;;;;;;;12.23;3.00;;;3.30;99.90;;;;;;5029986;28;20457;-73
2023/03/27 00:32:38;;;;;;;11.80;3.03;;;3.30;99.90;;;;;;5031147;28;20456;-72
2023/03/27 00:35:09;;;;;;;13.87;3.17;;;3.20;99.90;;;;;;5015250;28;21016;-72
2023/03/27 00:37:37;;;;;;;12.00;2.30;;;3.20;99.90;;;;;;5015526;28;20445;-72
2023/03/27 00:40:08;;;;;;;16.00;2.83;;;3.20;99.90;;;;;;5032820;28;20780;-73
2023/03/27 00:42:36;;;;;;;7.77;2.30;;;3.20;99.90;;;;;;5031716;28;20442;-72
2023/03/27 00:45:06;;;;;;;11.63;3.10;;;3.20;99.90;;;;;;5032966;28;20950;-72
2023/03/27 00:47:38;;;;;;;8.47;2.50;;;3.20;99.90;;;;;;5015147;28;20466;-72
2023/03/27 00:50:12;;;;;;;12.50;2.83;;;3.20;99.90;;;;;;5031606;28;20454;-73
2023/03/27 00:52:46;;;;;;;13.73;3.93;;;3.20;99.90;;;;;;5015213;28;20464;-72
2023/03/27 00:55:18;;;;;;;8.33;2.60;;;3.20;99.90;;;;;;5033031;28;20844;-72
2023/03/27 00:57:54;;;;;;;12.17;3.47;;;3.10;99.90;;;;;;5015202;28;20468;-72
2023/03/27 01:00:23;;;;;;;7.90;2.43;;;3.10;99.90;;;;;;5032732;28;20524;-72
2023/03/27 01:02:51;;;;;;;7.97;2.53;;;3.10;99.90;;;;;;5018297;28;20435;-72
2023/03/27 01:05:22;;;;;;;7.73;2.40;;;3.10;99.90;;;;;;5018798;28;20446;-72
2023/03/27 01:07:52;;;;;;;10.53;2.73;;;3.10;99.90;;;;;;5036540;28;20481;-72
2023/03/27 01:10:40;;;;;;;6.33;2.33;;;3.10;99.90;;;;;;5018656;28;20975;-73
2023/03/27 01:13:24;;;;;;;11.90;2.33;;;3.10;99.90;;;;;;5035142;28;20438;-72
2023/03/27 01:15:57;;;;;;;8.83;2.50;;;3.10;99.90;;;;;;5018626;28;20452;-72
2023/03/27 01:18:35;;;;;;;8.97;3.07;;;3.00;99.90;;;;;;5018570;28;20435;-72
2023/03/27 01:21:40;;;;;;;8.50;2.07;;;3.00;99.90;;;;;;5018468;28;20560;-72
2023/03/27 01:24:49;;;;;;;9.67;2.47;;;3.00;99.90;;;;;;5018622;28;20437;-72
2023/03/27 01:27:19;;;;;;;11.07;2.20;;;3.00;99.90;;;;;;5018608;28;20948;-72
2023/03/27 01:30:08;;;;;;;9.63;2.50;;;3.00;99.90;;;;;;5017316;28;20447;-72
2023/03/27 01:33:12;;;;;;;13.13;2.47;;;3.00;99.90;;;;;;5036155;28;20430;-73
2023/03/27 01:36:14;;;;;;;9.00;2.60;;;3.00;99.90;;;;;;5033003;28;20455;-72
2023/03/27 01:39:12;;;;;;;7.57;2.43;;;3.00;99.90;;;;;;5014107;28;20445;-73
2023/03/27 01:41:49;;;;;;;8.40;2.17;;;3.00;99.90;;;;;;5009025;28;20547;-72
2023/03/27 01:44:22;;;;;;;7.40;2.20;;;3.00;99.90;;;;;;5017976;28;20504;-73
2023/03/27 01:46:57;;;;;;;8.63;2.20;;;3.00;99.90;;;;;;5018227;28;20803;-72
2023/03/27 01:49:30;;;;;;;8.90;2.43;;;3.00;99.90;;;;;;4998455;28;20958;-72
2023/03/27 01:52:05;;;;;;;10.20;2.90;;;3.00;99.90;;;;;;5030428;28;20462;-72
2023/03/27 01:54:35;;;;;;;5.07;1.87;;;3.00;99.90;;;;;;5017867;28;20866;-72
2023/03/27 01:57:14;;;;;;;6.60;2.70;;;3.00;99.90;;;;;;5018083;28;20460;-72
2023/03/27 01:59:48;;;;;;;5.23;2.00;;;3.00;99.90;;;;;;5018322;28;20860;-72
2023/03/27 02:02:21;;;;;;;8.60;2.50;;;3.00;99.90;;;;;;5017753;28;20480;-72
2023/03/27 02:04:54;;;;;;;9.97;2.70;;;3.00;99.90;;;;;;5017719;28;20447;-72
2023/03/27 02:07:29;;;;;;;9.77;2.93;;;3.00;99.90;;;;;;5017910;28;20454;-72
2023/03/27 02:10:02;;;;;;;9.97;2.10;;;3.00;99.90;;;;;;5017561;28;20437;-72
2023/03/27 02:12:34;;;;;;;6.23;2.20;;;3.00;99.90;;;;;;5017873;28;20439;-72
2023/03/27 02:15:08;;;;;;;4.40;1.80;;;2.90;99.90;;;;;;5035528;28;20434;-72
2023/03/27 02:18:03;;;;;;;6.20;2.00;;;2.90;99.90;;;;;;5033953;28;20454;-73
2023/03/27 02:20:33;;;;;;;5.93;2.07;;;2.90;99.90;;;;;;5017388;28;20561;-73
2023/03/27 02:23:01;;;;;;;6.73;2.30;;;2.90;99.90;;;;;;5017191;28;20537;-72
2023/03/27 02:25:32;;;;;;;8.80;2.30;;;2.90;99.90;;;;;;5017307;28;20442;-72
2023/03/27 02:28:32;;;;;;;8.60;2.23;;;2.80;99.90;;;;;;5017245;28;20458;-72
2023/03/27 02:31:11;;;;;;;8.97;2.83;;;2.80;99.90;;;;;;5017108;28;20981;-72
2023/03/27 02:34:30;;;;;;;10.00;2.13;;;2.80;99.90;;;;;;5015992;28;20442;-73
2023/03/27 02:37:05;;;;;;;6.20;1.93;;;2.80;99.90;;;;;;5009455;28;20888;-72
2023/03/27 02:39:57;;;;;;;4.83;1.63;;;2.80;99.90;;;;;;5034604;28;20448;-72
2023/03/27 02:42:34;;;;;;;9.97;2.67;;;2.80;99.90;;;;;;5016685;28;20540;-72
2023/03/27 02:45:11;;;;;;;7.37;2.03;;;2.80;99.90;;;;;;5033381;28;20969;-72
2023/03/27 02:47:42;;;;;;;8.13;1.93;;;2.70;99.90;;;;;;5016905;28;20549;-72
2023/03/27 02:50:16;;;;;;;6.17;2.07;;;2.70;99.90;;;;;;5033305;28;20450;-73
2023/03/27 02:52:47;;;;;;;9.97;2.30;;;2.70;99.90;;;;;;5033307;28;20497;-72
2023/03/27 02:55:19;;;;;;;8.93;2.10;;;2.70;99.90;;;;;;5034519;28;20465;-73
2023/03/27 02:57:50;;;;;;;7.37;1.93;;;2.70;99.90;;;;;;5016717;28;20451;-72
2023/03/27 03:00:38;;;;;;;7.17;1.93;;;2.70;99.90;;;;;;5034284;28;20458;-73
2023/03/27 03:03:27;;;;;;;6.40;1.50;;;2.70;99.90;;;;;;5033265;28;20470;-72
2023/03/27 03:06:05;;;;;;;8.00;1.43;;;2.70;99.90;;;;;;5033319;28;20454;-73
2023/03/27 03:08:36;;;;;;;6.30;2.20;;;2.70;99.90;;;;;;5016787;28;20434;-72
2023/03/27 03:11:09;;;;;;;5.43;1.87;;;2.70;99.90;;;;;;5033249;28;20478;-72
2023/03/27 03:13:38;;;;;;;8.87;2.07;;;2.70;99.90;;;;;;5034173;28;20542;-72
2023/03/27 03:16:09;;;;;;;5.37;2.00;;;2.70;99.90;;;;;;5016370;28;20452;-72
2023/03/27 03:18:37;;;;;;;5.33;1.80;;;2.70;99.90;;;;;;5034073;28;20912;-72
2023/03/27 03:21:05;;;;;;;3.40;1.60;;;2.60;99.90;;;;;;5016229;28;20463;-72
2023/03/27 03:23:34;;;;;;;6.73;2.00;;;2.70;99.90;;;;;;5015811;28;20473;-72
2023/03/27 03:26:03;;;;;;;6.30;1.90;;;2.60;99.90;;;;;;5016000;28;21000;-72
2023/03/27 03:28:43;;;;;;;6.50;2.13;;;2.60;99.90;;;;;;5016404;28;20477;-72
2023/03/27 03:31:42;;;;;;;6.23;2.07;;;2.70;99.90;;;;;;5016616;28;20475;-72
2023/03/27 03:34:12;;;;;;;7.10;2.17;;;2.60;99.90;;;;;;5033897;28;20476;-73
2023/03/27 03:36:41;;;;;;;6.63;2.23;;;2.60;99.90;;;;;;5015551;28;20444;-74
2023/03/27 03:39:11;;;;;;;5.83;1.87;;;2.60;99.90;;;;;;5015589;28;20474;-72
2023/03/27 03:41:39;;;;;;;4.60;1.90;;;2.60;99.90;;;;;;5015837;28;20463;-72
2023/03/27 03:44:07;;;;;;;6.80;1.87;;;2.60;99.90;;;;;;5033725;28;20951;-73
2023/03/27 03:46:37;;;;;;;9.00;2.30;;;2.60;99.90;;;;;;5015837;28;20479;-72
2023/03/27 03:49:06;;;;;;;4.63;1.90;;;2.50;99.90;;;;;;5015788;28;20464;-72
2023/03/27 03:51:35;;;;;;;5.07;1.87;;;2.60;99.90;;;;;;5015836;28;20562;-72
2023/03/27 03:54:05;;;;;;;23.40;2.83;;;2.50;99.90;;;;;;5033665;28;20435;-72
2023/03/27 03:56:33;;;;;;;7.43;2.53;;;2.50;99.90;;;;;;5016255;28;20821;-72
2023/03/27 03:59:01;;;;;;;6.97;2.00;;;2.50;99.90;;;;;;5033381;28;20504;-72
2023/03/27 04:01:32;;;;;;;8.13;2.20;;;2.50;99.90;;;;;;5015512;28;20474;-72
2023/03/27 04:04:03;;;;;;;9.67;2.57;;;2.50;99.90;;;;;;5015825;28;21011;-72
2023/03/27 04:06:51;;;;;;;5.83;2.13;;;2.50;99.90;;;;;;5033220;28;20450;-72
2023/03/27 04:09:20;;;;;;;5.77;2.07;;;2.50;99.90;;;;;;5015533;28;20501;-72
2023/03/27 04:12:03;;;;;;;6.07;2.20;;;2.50;99.90;;;;;;5016114;28;20472;-72
2023/03/27 04:14:51;;;;;;;7.13;1.50;;;2.50;99.90;;;;;;5016608;28;20496;-72
2023/03/27 04:17:51;;;;;;;6.23;1.50;;;2.50;99.90;;;;;;5015452;28;20446;-72
2023/03/27 04:20:21;;;;;;;6.43;1.83;;;2.40;99.90;;;;;;5033107;28;20493;-72
2023/03/27 04:22:49;;;;;;;6.23;1.97;;;2.40;99.90;;;;;;5033313;28;20517;-72
2023/03/27 04:25:23;;;;;;;5.50;2.27;;;2.40;99.90;;;;;;5015762;28;20453;-72
2023/03/27 04:27:52;;;;;;;6.97;2.10;;;2.40;99.90;;;;;;5015399;28;20485;-72
2023/03/27 04:30:30;;;;;;;4.20;2.20;;;2.40;99.90;;;;;;5015223;28;20470;-72
2023/03/27 04:33:18;;;;;;;6.17;1.77;;;2.40;99.90;;;;;;5012314;28;20447;-72
2023/03/27 04:36:07;;;;;;;8.97;2.60;;;2.30;99.90;;;;;;5035594;28;20956;-72
2023/03/27 04:38:46;;;;;;;6.43;2.00;;;2.30;99.90;;;;;;5019578;28;20443;-72
2023/03/27 04:41:16;;;;;;;9.43;3.03;;;2.30;99.90;;;;;;5019338;28;20480;-72
2023/03/27 04:43:44;;;;;;;9.13;2.80;;;2.30;99.90;;;;;;5018923;28;21020;-72
2023/03/27 04:46:13;;;;;;;6.30;2.30;;;2.20;99.90;;;;;;5019099;28;20450;-72
2023/03/27 04:48:43;;;;;;;6.90;2.43;;;2.20;99.90;;;;;;5019371;28;20460;-72
2023/03/27 04:51:21;;;;;;;8.50;2.70;;;2.20;99.90;;;;;;5035462;28;20466;-72
2023/03/27 04:53:49;;;;;;;7.70;1.73;;;2.20;99.90;;;;;;5018900;28;20880;-72
2023/03/27 04:56:18;;;;;;;4.47;1.67;;;2.10;99.90;;;;;;5018887;28;20450;-72
2023/03/27 04:58:46;;;;;;;9.13;2.93;;;2.10;99.90;;;;;;5018876;28;20457;-72
2023/03/27 05:01:17;;;;;;;5.43;2.10;;;2.20;99.90;;;;;;5018829;28;20469;-72
2023/03/27 05:04:03;;;;;;;10.40;2.27;;;2.10;99.90;;;;;;5019077;28;20501;-72
2023/03/27 05:06:42;;;;;;;7.10;2.83;;;2.10;99.90;;;;;;5019109;28;20537;-72
2023/03/27 05:09:14;;;;;;;11.60;3.90;;;2.10;99.90;;;;;;5019319;28;20457;-72
2023/03/27 05:11:43;;;;;;;11.10;3.00;;;2.10;99.90;;;;;;5018716;28;20479;-72
2023/03/27 05:14:13;;;;;;;11.93;2.63;;;2.10;99.90;;;;;;5018648;28;20829;-72
2023/03/27 05:16:41;;;;;;;6.60;2.67;;;2.10;99.90;;;;;;5018741;28;20441;-72
2023/03/27 05:19:11;;;;;;;10.70;3.20;;;2.00;99.90;;;;;;5018544;28;20459;-72
2023/03/27 05:21:46;;;;;;;5.83;2.30;;;2.10;99.90;;;;;;5019237;28;20471;-72
2023/03/27 05:24:14;;;;;;;8.40;3.80;;;2.00;99.90;;;;;;5036436;28;20464;-72
2023/03/27 05:26:44;;;;;;;9.17;2.73;;;2.00;99.90;;;;;;5018507;28;20449;-72
2023/03/27 05:29:12;;;;;;;8.90;2.70;;;2.00;99.90;;;;;;5036339;28;20949;-72
2023/03/27 05:31:44;;;;;;;7.40;2.90;;;2.00;99.90;;;;;;5018202;28;20465;-72
2023/03/27 05:34:37;;;;;;;9.43;3.20;;;2.00;99.90;;;;;;5035589;28;20446;-72
2023/03/27 05:37:09;;;;;;;8.13;3.50;;;2.00;99.90;;;;;;5018459;28;20470;-72
2023/03/27 05:39:58;;;;;;;9.50;2.77;;;2.00;99.90;;;;;;5035984;28;20505;-72
2023/03/27 05:42:26;;;;;;;7.97;3.50;;;2.00;99.90;;;;;;5034588;28;20445;-72
2023/03/27 05:44:55;;;;;;;8.50;3.00;;;2.10;99.90;;;;;;5017917;28;20453;-72
2023/03/27 05:47:25;;;;;;;6.20;2.90;;;2.10;99.90;;;;;;5017403;28;20460;-71
2023/03/27 05:49:54;;;;;;;7.00;2.90;;;2.10;99.90;;;;;;5018825;28;20457;-72
2023/03/27 05:52:24;;;;;;;6.50;2.77;;;2.10;99.90;;;;;;5017814;28;20981;-72
2023/03/27 05:54:56;;;;;;;11.40;3.77;;;2.10;99.90;;;;;;5017888;28;20521;-71
2023/03/27 05:57:24;;;;;;;9.60;2.83;;;2.20;99.90;;;;;;5017813;28;20986;-71
2023/03/27 05:59:56;;;;;;;8.00;3.37;;;2.10;99.90;;;;;;5034575;28;20860;-71
2023/03/27 06:02:26;;;;;;;8.00;2.70;;;2.10;99.90;;;;;;5017700;28;20469;-71
2023/03/27 06:05:03;;;;;;;8.33;3.53;;;2.20;99.90;;;;;;5017845;28;20479;-71
2023/03/27 06:07:38;;;;;;;8.27;2.93;;;2.20;99.90;;;;;;5017664;28;20439;-71
2023/03/27 06:10:12;;;;;;;7.10;2.83;;;2.20;99.90;;;;;;5017754;28;20631;-72
2023/03/27 06:13:11;;;;;;;11.13;2.90;;;2.20;99.90;;;;;;5017844;28;20455;-72
2023/03/27 06:15:54;;;;;;;12.13;4.20;;;2.30;99.90;;;;;;5017586;28;20455;-73
2023/03/27 06:18:42;;;;;;;10.10;3.50;;;2.30;99.90;;;;;;5035743;28;20431;-73
2023/03/27 06:21:13;;;;;;;8.57;3.30;;;2.40;99.90;;;;;;5017406;28;20833;-73
2023/03/27 06:23:42;;;;;;;10.33;3.70;;;2.40;99.90;;;;;;5017224;28;20479;-73
2023/03/27 06:26:12;;;;;;;10.37;3.80;;;2.60;99.90;;;;;;5017236;28;20442;-70
2023/03/27 06:28:41;;;;;;;10.10;3.60;;;2.70;99.90;;;;;;5017171;28;20447;-70
2023/03/27 06:31:13;;;;;;;15.37;4.70;;;2.90;99.90;;;;;;5017049;28;20459;-70
2023/03/27 06:34:14;;;;;;;9.63;2.97;;;3.10;99.90;;;;;;5016023;28;20554;-71
2023/03/27 06:36:54;;;;;;;7.17;3.13;;;3.30;99.90;;;;;;5017385;28;20460;-71
2023/03/27 06:39:26;;;;;;;9.33;3.07;;;3.50;99.90;;;;;;5016992;28;20880;-71
2023/03/27 06:41:55;;;;;;;6.30;3.00;;;3.70;99.90;;;;;;5016637;28;20463;-70
2023/03/27 06:44:44;;;;;;;5.97;2.23;;;3.90;99.90;;;;;;5016813;28;20528;-71
2023/03/27 06:47:34;;;;;;;7.40;2.83;;;4.00;99.90;;;;;;5016124;28;20489;-71
2023/03/27 06:50:39;;;;;;;9.47;2.60;;;4.20;99.90;;;;;;5016715;28;20893;-71
2023/03/27 06:53:08;;;;;;;7.40;2.97;;;4.10;99.90;;;;;;5034447;28;20796;-71
2023/03/27 06:55:54;;;;;;;6.97;2.30;;;4.00;99.90;;;;;;5016745;28;20887;-71
2023/03/27 06:58:26;;;;;;;7.00;2.60;;;3.90;99.90;;;;;;5016632;28;20443;-71
2023/03/27 07:00:54;;;;;;;7.33;2.10;;;3.80;99.90;;;;;;5016155;28;20470;-71
2023/03/27 07:03:34;;;;;;;6.63;2.40;;;3.80;99.90;;;;;;5016651;28;20544;-70
2023/03/27 07:06:21;;;;;;;8.00;2.37;;;3.70;99.90;;;;;;5034636;28;20478;-70
2023/03/27 07:08:54;;;;;;;7.70;2.57;;;3.70;99.90;;;;;;5016448;28;20443;-71
2023/03/27 07:11:24;;;;;;;6.90;1.87;;;3.70;99.90;;;;;;5016438;28;20531;-70
2023/03/27 07:13:59;;;;;;;7.43;2.00;;;3.70;99.90;;;;;;5017235;28;20445;-71
2023/03/27 07:16:30;;;;;;;5.77;2.40;;;3.80;99.90;;;;;;5016339;28;20483;-71
2023/03/27 07:18:58;;;;;;;5.10;2.10;;;3.90;99.90;;;;;;5016249;28;20479;-72
2023/03/27 07:21:30;;;;;;;5.87;2.00;;;4.00;99.90;;;;;;5016474;28;20972;-71
2023/03/27 07:23:59;;;;;;;5.73;1.90;;;4.10;99.90;;;;;;5016449;28;20502;-71
2023/03/27 07:26:34;;;;;;;5.00;1.40;;;4.30;99.90;;;;;;5016224;28;20446;-71
2023/03/27 07:29:10;;;;;;;8.47;2.20;;;4.30;99.90;;;;;;5016155;28;20822;-71
2023/03/27 07:31:39;;;;;;;6.57;1.90;;;4.40;99.90;;;;;;5016047;28;20471;-71
2023/03/27 07:34:39;;;;;;;5.80;1.60;;;4.50;99.90;;;;;;5016176;28;20498;-71
2023/03/27 07:37:36;;;;;;;8.60;1.90;;;4.60;99.90;;;;;;5010258;28;20446;-71
2023/03/27 07:40:25;;;;;;;5.93;2.13;;;4.70;99.90;;;;;;5033915;28;20481;-71
2023/03/27 07:43:27;;;;;;;8.87;2.53;;;4.70;99.90;;;;;;5015895;28;20546;-71
2023/03/27 07:45:56;;;;;;;8.80;2.33;;;4.80;99.90;;;;;;5015967;28;20532;-71
2023/03/27 07:48:26;;;;;;;8.63;2.30;;;5.00;99.90;;;;;;5015866;28;20494;-71
2023/03/27 07:50:57;;;;;;;5.10;1.90;;;5.00;99.90;;;;;;5015691;28;21014;-71
2023/03/27 07:53:40;;;;;;;5.40;1.63;;;5.00;99.90;;;;;;5015699;28;20893;-71
2023/03/27 07:56:23;;;;;;;5.27;2.10;;;5.00;99.90;;;;;;5016302;28;20497;-71
2023/03/27 07:59:12;;;;;;;4.07;2.37;;;5.10;99.90;;;;;;5033250;28;20451;-72
2023/03/27 08:01:41;;;;;;;6.00;2.40;;;5.10;99.90;;;;;;5015613;28;20837;-71
2023/03/27 08:04:09;;;;;;;4.93;1.90;;;5.20;99.90;;;;;;5015569;28;20517;-71
2023/03/27 08:06:41;;;;;;;5.13;1.90;;;5.20;99.90;;;;;;5016257;28;20438;-71
2023/03/27 08:09:14;;;;;;;6.03;2.27;;;5.20;99.90;;;;;;5016262;28;20442;-71
2023/03/27 08:11:43;;;;;;;9.10;2.57;;;5.40;99.90;;;;;;5033198;28;20482;-71
2023/03/27 08:14:12;;;;;;;5.07;2.00;;;5.60;99.90;;;;;;5015749;28;20475;-71
2023/03/27 08:16:41;;;;;;;6.27;2.30;;;5.80;99.90;;;;;;5016175;28;20531;-71
2023/03/27 08:19:10;;;;;;;5.93;2.40;;;6.00;99.90;;;;;;5015613;28;20479;-71
2023/03/27 08:21:42;;;;;;;6.53;2.03;;;6.20;99.90;;;;;;5015722;28;20545;-71
2023/03/27 08:24:11;;;;;;;4.20;1.90;;;6.30;99.90;;;;;;5033129;28;20474;-71
2023/03/27 08:27:02;;;;;;;5.57;2.00;;;6.50;99.90;;;;;;5015875;28;20475;-71
2023/03/27 08:29:36;;;;;;;5.37;1.90;;;6.60;99.90;;;;;;5015744;28;20452;-71
2023/03/27 08:32:04;;;;;;;7.40;1.90;;;6.70;99.90;;;;;;5015321;28;20471;-72
2023/03/27 08:34:35;;;;;;;6.53;1.93;;;6.70;99.90;;;;;;5015333;28;20455;-71
2023/03/27 08:37:03;;;;;;;7.10;2.20;;;6.90;99.90;;;;;;5032127;28;20958;-71
2023/03/27 08:39:40;;;;;;;11.83;1.90;;;6.90;99.90;;;;;;5015430;28;20447;-71
2023/03/27 08:42:16;;;;;;;7.90;1.70;;;6.90;99.90;;;;;;5031613;28;20481;-71
2023/03/27 08:44:55;;;;;;;7.70;2.40;;;7.00;99.90;;;;;;5015430;28;20470;-71
2023/03/27 08:47:40;;;;;;;7.80;1.70;;;7.10;99.90;;;;;;5015313;28;20537;-72
2023/03/27 08:50:27;;;;;;;6.30;1.30;;;7.20;99.90;;;;;;5015948;28;20501;-71
2023/03/27 08:53:17;;;;;;;6.13;1.40;;;7.20;99.90;;;;;;5016114;28;20505;-71
2023/03/27 08:55:45;;;;;;;5.47;1.67;;;7.20;99.90;;;;;;5015795;28;20446;-71
2023/03/27 08:58:37;;;;;;;5.03;1.53;;;7.10;99.90;;;;;;5015173;28;20930;-71
2023/03/27 09:01:25;;;;;;;5.53;1.70;;;7.00;99.90;;;;;;5015887;28;20535;-71
2023/03/27 09:04:01;;;;;;;4.10;1.40;;;6.80;99.90;;;;;;5015604;28;20854;-71
2023/03/27 09:06:41;;;;;;;7.13;1.90;;;6.60;99.90;;;;;;5014988;28;20571;-71
2023/03/27 09:09:20;;;;;;;8.40;1.70;;;6.40;99.90;;;;;;5015100;28;20439;-71
2023/03/27 09:11:57;;;;;;;5.10;1.40;;;6.20;99.90;;;;;;5014947;28;20474;-71
2023/03/27 09:14:35;;;;;;;5.00;1.40;;;6.00;99.90;;;;;;5015146;28;20447;-71
2023/03/27 09:17:11;;;;;;;6.57;1.80;;;5.80;99.90;;;;;;5014918;28;20440;-71
2023/03/27 09:19:46;;;;;;;5.70;1.63;;;5.70;99.90;;;;;;5033211;28;20428;-71
2023/03/27 09:22:22;;;;;;;4.60;1.43;;;5.60;99.90;;;;;;5015912;28;20470;-71
2023/03/27 09:25:15;;;;;;;6.70;1.43;;;5.40;99.90;;;;;;5018891;28;20546;-71
2023/03/27 09:28:00;;;;;;;4.20;1.40;;;5.10;99.90;;;;;;5036784;28;20458;-71
2023/03/27 09:30:38;;;;;;;3.73;1.23;;;4.80;99.90;;;;;;5018283;28;20533;-74
2023/03/27 09:33:16;;;;;;;4.77;1.77;;;4.60;99.90;;;;;;5018643;28;20485;-74
2023/03/27 09:35:46;;;;;;;3.60;1.07;;;4.50;99.90;;;;;;5034662;28;20972;-74
2023/03/27 09:38:24;;;;;;;3.90;0.93;;;4.40;99.90;;;;;;5018136;28;21014;-75
2023/03/27 09:40:57;;;;;;;3.73;1.07;;;4.40;99.90;;;;;;5034646;28;20466;-75
2023/03/27 09:43:31;;;;;;;4.73;1.13;;;4.50;99.90;;;;;;5018263;28;20936;-75
2023/03/27 09:46:01;;;;;;;4.83;1.07;;;4.60;99.90;;;;;;5018941;28;20525;-72
2023/03/27 09:48:38;;;;;;;4.17;1.90;;;4.70;99.90;;;;;;5018158;28;20973;-74
2023/03/27 09:51:42;;;;;;;3.83;1.20;;;4.70;99.90;;;;;;5018490;28;20565;-74
2023/03/27 09:54:20;;;;;;;3.37;1.10;;;4.70;99.90;;;;;;5014240;28;20924;-72
2023/03/27 09:56:52;;;;;;;3.37;1.07;;;4.70;99.90;;;;;;5017976;28;20530;-72
2023/03/27 09:59:24;;;;;;;5.77;1.60;;;4.70;99.90;;;;;;5017864;28;20501;-73
2023/03/27 10:02:08;;;;;;;4.70;1.43;;;4.60;99.90;;;;;;5017871;28;20466;-72
2023/03/27 10:04:37;;;;;;;4.30;1.40;;;4.70;99.90;;;;;;5017788;28;20443;-72
2023/03/27 10:07:09;;;;;;;6.77;1.60;;;4.80;99.90;;;;;;5017643;28;20478;-72
2023/03/27 10:10:10;;;;;;;5.33;1.80;;;4.80;99.90;;;;;;5022014;28;20446;-73
2023/03/27 10:13:01;;;;;;;7.30;1.80;;;5.00;99.90;;;;;;5017925;28;20512;-72
2023/03/27 10:15:39;;;;;;;8.40;1.50;;;5.10;99.90;;;;;;5018433;28;20439;-72
2023/03/27 10:18:24;;;;;;;5.37;1.60;;;5.20;99.90;;;;;;5034284;28;20458;-71
2023/03/27 10:20:58;;;;;;;5.90;2.17;;;5.40;99.90;;;;;;5017619;28;20536;-72
2023/03/27 10:23:39;;;;;;;8.40;2.00;;;5.50;99.90;;;;;;5017536;28;20806;-72
2023/03/27 10:26:13;;;;;;;8.67;2.33;;;5.70;99.90;;;;;;5017554;28;21043;-71
2023/03/27 10:28:50;;;;;;;4.87;1.90;;;5.90;99.90;;;;;;5017357;28;20467;-72
2023/03/27 10:31:29;;;;;;;6.83;1.93;;;6.00;99.90;;;;;;5035257;28;20502;-72
2023/03/27 10:34:05;;;;;;;5.63;1.70;;;6.00;99.90;;;;;;5016964;28;21012;-72
2023/03/27 10:36:54;;;;;;;5.90;1.77;;;6.10;99.90;;;;;;5035331;28;20769;-71
2023/03/27 10:39:28;;;;;;;7.53;2.10;;;6.30;99.90;;;;;;5017440;28;20444;-71
2023/03/27 10:42:09;;;;;;;5.23;1.37;;;6.30;99.90;;;;;;5017743;28;20499;-72
2023/03/27 10:44:44;;;;;;;9.20;1.90;;;6.40;99.90;;;;;;5017233;28;20489;-71
2023/03/27 10:47:18;;;;;;;5.90;1.73;;;6.60;99.90;;;;;;5016890;28;20542;-72
2023/03/27 10:49:57;;;;;;;7.30;2.00;;;6.60;99.90;;;;;;5017476;28;20447;-71
2023/03/27 10:52:42;;;;;;;4.50;1.50;;;6.60;99.90;;;;;;5017200;28;20548;-71
2023/03/27 10:55:32;;;;;;;4.83;1.30;;;6.60;99.90;;;;;;5016860;28;20469;-71
2023/03/27 10:58:06;;;;;;;3.93;1.00;;;6.50;99.90;;;;;;5034773;28;20941;-71
2023/03/27 11:00:42;;;;;;;2.80;0.77;;;6.50;99.90;;;;;;5016680;28;20562;-72
2023/03/27 11:03:19;;;;;;;3.57;1.20;;;6.30;99.90;;;;;;5016710;28;20477;-72
2023/03/27 11:05:52;;;;;;;2.77;0.77;;;6.30;99.90;;;;;;5016855;28;20479;-71
2023/03/27 11:08:51;;;;;;;3.37;0.87;;;6.20;99.90;;;;;;5016646;28;20455;-72
2023/03/27 11:11:27;;;;;;;3.10;0.90;;;6.10;99.90;;;;;;5033220;28;20487;-72
2023/03/27 11:14:02;;;;;;;3.63;0.70;;;6.10;99.90;;;;;;5016615;28;20435;-72
2023/03/27 11:16:37;;;;;;;2.73;0.70;;;6.10;99.90;;;;;;5016469;28;20438;-72
2023/03/27 11:19:34;;;;;;;2.93;0.80;;;6.10;99.90;;;;;;5033952;28;20473;-72
2023/03/27 11:22:28;;;;;;;3.40;1.00;;;6.10;99.90;;;;;;5033398;28;20469;-72
2023/03/27 11:25:04;;;;;;;2.80;0.70;;;6.10;99.90;;;;;;5016356;28;20430;-72
2023/03/27 11:27:40;;;;;;;3.70;0.93;;;6.20;99.90;;;;;;5016178;28;20499;-71
2023/03/27 11:30:31;;;;;;;4.63;1.20;;;6.30;99.90;;;;;;5016068;28;20957;-72
2023/03/27 11:33:12;;;;;;;5.20;1.10;;;6.30;99.90;;;;;;5016572;28;20494;-71
2023/03/27 11:35:48;;;;;;;2.70;0.93;;;6.50;99.90;;;;;;5016103;28;20480;-72
2023/03/27 11:39:06;;;;;;;4.00;1.00;;;6.50;99.90;;;;;;5012614;28;20947;-72
2023/03/27 11:41:36;;;;;;;4.33;1.30;;;6.70;99.90;;;;;;5015981;28;20550;-71
2023/03/27 11:44:05;;;;;;;3.50;1.00;;;6.80;99.90;;;;;;5016027;28;20545;-72
2023/03/27 11:47:09;;;;;;;5.17;1.27;;;6.90;99.90;;;;;;5033756;28;21011;-72
2023/03/27 11:49:54;;;;;;;4.20;1.50;;;7.00;99.90;;;;;;5016608;28;20442;-72
2023/03/27 11:52:36;;;;;;;3.03;0.70;;;7.10;99.90;;;;;;5015772;28;20473;-71
2023/03/27 11:55:17;;;;;;;4.97;1.10;;;7.30;99.90;;;;;;5015901;28;20525;-71
2023/03/27 11:58:06;;;;;;;4.83;0.90;;;7.40;99.90;;;;;;5033766;28;20880;-71
2023/03/27 12:00:52;;;;;;;4.00;1.00;;;7.60;99.90;;;;;;5015877;28;20549;-71
2023/03/27 12:03:39;;;;;;;6.50;1.10;;;7.70;99.90;;;;;;5015701;28;20533;-71
2023/03/27 12:06:15;;;;;;;4.10;1.07;;;7.60;99.90;;;;;;5015856;28;20469;-71
2023/03/27 12:09:04;;;;;;;3.10;0.70;;;7.50;99.90;;;;;;5015579;28;20839;-71
2023/03/27 12:11:49;;;;;;;4.50;1.00;;;7.20;99.90;;;;;;5015598;28;20993;-71
2023/03/27 12:14:53;;;;;;;3.90;1.10;;;6.90;99.90;;;;;;5033642;28;20429;-71
2023/03/27 12:17:38;;;;;;;3.60;1.07;;;6.60;99.90;;;;;;5004117;28;20436;-71
2023/03/27 12:20:40;;;;;;;3.20;1.03;;;6.30;99.90;;;;;;5015710;28;20488;-73
2023/03/27 12:23:42;;;;;;;4.50;1.57;;;6.00;99.90;;;;;;5015514;28;20455;-71
2023/03/27 12:26:56;;;;;;;3.77;1.50;;;5.90;99.90;;;;;;5033293;28;20524;-72
2023/03/27 12:30:24;;;;;;;4.40;1.20;;;5.80;99.90;;;;;;5015368;28;20444;-71
2023/03/27 12:33:17;;;;;;;3.50;1.20;;;5.80;99.90;;;;;;4936903;29;21019;-71
2023/03/27 12:35:49;;;;;;;3.97;1.33;;;5.90;99.90;;;;;;5032935;28;20466;-71
2023/03/27 12:38:26;;;;;;;5.10;1.27;;;6.00;99.90;;;;;;5015538;28;20472;-71
2023/03/27 12:41:05;;;;;;;6.00;1.57;;;6.10;99.90;;;;;;5033283;28;20475;-71
2023/03/27 12:43:57;;;;;;;4.37;1.77;;;6.20;99.90;;;;;;5032899;28;20571;-71
2023/03/27 12:46:38;;;;;;;5.40;1.43;;;6.40;99.90;;;;;;5016001;28;20468;-71
2023/03/27 12:49:43;;;;;;;4.17;1.30;;;6.50;99.90;;;;;;5015811;28;20468;-71
2023/03/27 12:52:25;;;;;;;5.63;1.53;;;6.60;99.90;;;;;;5009534;28;20901;-71
2023/03/27 12:55:22;;;;;;;5.80;1.13;;;6.70;99.90;;;;;;5032914;28;20425;-71
2023/03/27 12:57:51;;;;;;;4.50;1.33;;;6.70;99.90;;;;;;5034075;28;20432;-71
2023/03/27 13:00:39;;;;;;;3.47;1.30;;;6.70;99.90;;;;;;5036278;28;20468;-72
2023/03/27 13:03:43;;;;;;;3.97;1.37;;;6.80;99.90;;;;;;5018902;28;20509;-72
2023/03/27 13:06:35;;;;;;;4.13;1.20;;;6.60;99.90;;;;;;5012999;28;20447;-72
2023/03/27 13:09:25;;;;;;;3.90;1.13;;;6.40;99.90;;;;;;5019332;28;20444;-72
2023/03/27 13:12:15;;;;;;;4.03;0.93;;;6.30;99.90;;;;;;5018629;28;20522;-72
2023/03/27 13:15:13;;;;;;;3.83;1.50;;;6.20;99.90;;;;;;5018575;28;20483;-72
2023/03/27 13:18:05;;;;;;;4.20;1.10;;;6.20;99.90;;;;;;5018858;28;20454;-72
2023/03/27 13:20:46;;;;;;;3.27;1.10;;;6.30;99.90;;;;;;5018468;28;20576;-72
2023/03/27 13:23:29;;;;;;;4.33;1.37;;;6.30;99.90;;;;;;5019122;28;20444;-71
2023/03/27 13:26:15;;;;;;;7.50;1.53;;;6.40;99.90;;;;;;5018467;28;20850;-71
2023/03/27 13:28:48;;;;;;;7.17;2.27;;;6.50;99.90;;;;;;5034858;28;20473;-71
2023/03/27 13:31:56;;;;;;;7.37;2.00;;;6.60;99.90;;;;;;5018324;28;20466;-71
2023/03/27 13:34:39;;;;;;;6.17;1.50;;;6.70;99.90;;;;;;5018682;28;20460;-72
2023/03/27 13:37:46;;;;;;;7.90;1.70;;;6.90;99.90;;;;;;5034956;28;20474;-72
2023/03/27 13:40:27;;;;;;;7.33;1.73;;;7.00;99.90;;;;;;5018172;28;20437;-72
2023/03/27 13:43:14;;;;;;;6.20;1.43;;;7.10;99.90;;;;;;5018153;28;20446;-72
2023/03/27 13:45:46;;;;;;;4.30;1.30;;;7.00;99.90;;;;;;5018106;28;20441;-72
2023/03/27 13:49:04;;;;;;;4.87;1.50;;;7.00;99.90;;;;;;5018225;28;20560;-72
2023/03/27 13:52:18;;;;;;;4.90;1.50;;;7.00;99.90;;;;;;5018073;28;20898;-72
2023/03/27 13:55:23;;;;;;;5.73;1.80;;;7.10;99.90;;;;;;5018145;28;20771;-72